createdAt,value
2022-12-01T00:01:38.406Z,32.92
2022-12-01T00:03:26.238Z,29.20
2022-12-01T00:05:13.336Z,28.80
2022-12-01T00:07:00.446Z,28.70
2022-12-01T00:09:08.684Z,33.88
2022-12-01T00:10:56.203Z,32.83
2022-12-01T00:12:46.041Z,28.25
2022-12-01T00:14:33.624Z,31.67
2022-12-01T00:16:21.428Z,29.48
2022-12-01T00:19:57.621Z,25.77
2022-12-01T00:21:46.347Z,27.58
2022-12-01T00:23:33.679Z,28.38
2022-12-01T00:25:21.839Z,26.38
2022-12-01T00:27:08.995Z,28.27
2022-12-01T00:28:58.346Z,27.65
2022-12-01T00:30:45.828Z,29.85
2022-12-01T00:32:33.274Z,31.08
2022-12-01T00:34:24.967Z,29.08
2022-12-01T00:36:12.597Z,33.40
2022-12-01T00:37:59.821Z,33.95
2022-12-01T00:39:47.438Z,31.17
2022-12-01T00:41:34.966Z,29.15
2022-12-01T00:43:24.282Z,19.95
2022-12-01T00:45:11.558Z,31.98
2022-12-01T00:46:59.183Z,30.40
2022-12-01T00:48:46.347Z,27.92
2022-12-01T00:50:33.875Z,27.05
2022-12-01T00:52:21.384Z,28.90
2022-12-01T00:54:08.616Z,30.90
2022-12-01T00:55:55.927Z,30.77
2022-12-01T00:57:43.565Z,28.13
2022-12-01T00:59:30.997Z,28.40
2022-12-01T01:01:18.302Z,33.47
2022-12-01T01:03:07.485Z,32.00
2022-12-01T01:04:54.620Z,30.45
2022-12-01T01:06:43.420Z,32.40
2022-12-01T01:08:30.959Z,30.13
2022-12-01T01:10:18.323Z,31.23
2022-12-01T01:12:05.662Z,31.65
2022-12-01T01:13:53.066Z,29.75
2022-12-01T01:15:40.751Z,24.02
2022-12-01T01:17:27.950Z,35.58
2022-12-01T01:19:16.887Z,36.28
2022-12-01T01:21:09.309Z,31.60
2022-12-01T01:22:58.371Z,35.80
2022-12-01T01:24:45.749Z,29.98
2022-12-01T01:26:33.591Z,31.30
2022-12-01T01:28:21.545Z,30.48
2022-12-01T01:30:09.448Z,34.53
2022-12-01T01:31:56.610Z,36.35
2022-12-01T01:33:44.411Z,36.13
2022-12-01T01:35:32.011Z,36.67
2022-12-01T01:37:19.446Z,35.15
2022-12-01T01:39:06.654Z,36.80
2022-12-01T01:40:54.342Z,35.83
2022-12-01T01:42:41.554Z,36.10
2022-12-01T01:44:57.916Z,33.88
2022-12-01T01:46:45.540Z,33.88
2022-12-01T01:48:36.921Z,32.03
2022-12-01T01:50:27.386Z,35.28
2022-12-01T01:52:15.217Z,31.27
2022-12-01T01:54:07.143Z,34.67
2022-12-01T01:55:54.430Z,32.58
2022-12-01T01:57:43.389Z,31.83
2022-12-01T01:59:37.211Z,31.10
2022-12-01T02:01:24.459Z,30.27
2022-12-01T02:03:15.860Z,35.78
2022-12-01T02:05:03.503Z,36.83
2022-12-01T02:06:51.004Z,34.33
2022-12-01T02:10:45.535Z,31.80
2022-12-01T02:12:53.474Z,32.58
2022-12-01T02:15:14.954Z,31.88
2022-12-01T02:17:08.141Z,33.67
2022-12-01T02:19:14.260Z,34.00
2022-12-01T02:21:16.831Z,33.97
2022-12-01T02:23:22.621Z,34.13
2022-12-01T02:25:20.675Z,33.30
2022-12-01T02:27:25.858Z,33.53
2022-12-01T02:29:39.539Z,30.67
2022-12-01T02:31:48.457Z,30.48
2022-12-01T02:34:02.459Z,28.10
2022-12-01T02:36:13.046Z,27.55
2022-12-01T02:38:14.777Z,31.90
2022-12-01T02:40:23.563Z,27.70
2022-12-01T02:42:40.688Z,35.72
2022-12-01T02:44:35.912Z,30.88
2022-12-01T02:46:44.214Z,33.05
2022-12-01T02:48:36.577Z,29.95
2022-12-01T02:50:25.799Z,32.53
2022-12-01T02:52:15.758Z,33.95
2022-12-01T02:54:05.134Z,31.17
2022-12-01T02:55:54.191Z,30.10
2022-12-01T02:57:41.448Z,29.95
2022-12-01T02:59:28.560Z,29.13
2022-12-01T03:01:52.876Z,31.98
2022-12-01T03:04:11.412Z,34.33
2022-12-01T03:06:13.816Z,32.35
2022-12-01T03:08:15.364Z,31.90
2022-12-01T03:10:27.755Z,34.00
2022-12-01T03:12:45.418Z,28.52
2022-12-01T03:14:40.472Z,35.35
2022-12-01T03:16:38.708Z,31.10
2022-12-01T03:18:31.327Z,30.80
2022-12-01T03:20:30.937Z,29.23
2022-12-01T03:22:27.114Z,30.00
2022-12-01T03:24:17.293Z,30.55
2022-12-01T03:26:08.823Z,31.63
2022-12-01T03:28:20.737Z,32.80
2022-12-01T03:30:10.302Z,32.15
2022-12-01T03:32:03.329Z,35.28
2022-12-01T03:33:57.703Z,38.63
2022-12-01T03:35:55.853Z,39.08
2022-12-01T03:37:42.913Z,39.00
2022-12-01T03:39:33.449Z,41.13
2022-12-01T03:41:26.121Z,35.00
2022-12-01T03:43:19.710Z,34.75
2022-12-01T03:45:18.370Z,33.22
2022-12-01T03:47:10.294Z,34.08
2022-12-01T03:48:57.571Z,34.22
2022-12-01T03:51:14.019Z,33.42
2022-12-01T03:53:11.515Z,32.45
2022-12-01T03:55:13.146Z,34.33
2022-12-01T03:57:05.346Z,29.05
2022-12-01T03:58:56.670Z,33.42
2022-12-01T04:00:45.094Z,34.05
2022-12-01T04:02:32.886Z,34.40
2022-12-01T04:04:20.072Z,32.95
2022-12-01T04:06:07.398Z,31.30
2022-12-01T04:07:54.948Z,32.78
2022-12-01T04:09:42.106Z,32.53
2022-12-01T04:11:48.035Z,33.83
2022-12-01T04:13:35.316Z,33.97
2022-12-01T04:15:23.143Z,33.27
2022-12-01T04:18:57.509Z,35.85
2022-12-01T04:20:50.960Z,39.30
2022-12-01T04:22:38.451Z,40.03
2022-12-01T04:24:25.715Z,41.88
2022-12-01T04:26:15.724Z,48.05
2022-12-01T04:28:03.094Z,37.70
2022-12-01T04:29:51.300Z,37.90
2022-12-01T04:31:39.117Z,41.38
2022-12-01T04:33:26.232Z,39.38
2022-12-01T04:35:13.518Z,41.95
2022-12-01T04:37:00.490Z,44.50
2022-12-01T04:38:47.670Z,40.07
2022-12-01T04:40:35.261Z,42.55
2022-12-01T04:42:22.384Z,46.08
2022-12-01T04:44:12.718Z,40.43
2022-12-01T04:46:00.248Z,41.72
2022-12-01T04:47:47.212Z,44.55
2022-12-01T04:49:35.320Z,40.22
2022-12-01T04:51:22.880Z,46.22
2022-12-01T04:53:09.840Z,42.45
2022-12-01T04:54:56.898Z,87.32
2022-12-01T04:56:44.560Z,83.47
2022-12-01T04:58:33.600Z,64.72
2022-12-01T05:00:20.720Z,74.55
2022-12-01T05:02:08.150Z,69.65
2022-12-01T05:03:55.315Z,61.70
2022-12-01T05:05:42.500Z,82.43
2022-12-01T05:07:29.976Z,76.40
2022-12-01T05:09:17.929Z,80.47
2022-12-01T05:11:07.813Z,57.08
2022-12-01T05:12:57.781Z,64.00
2022-12-01T05:14:45.810Z,49.83
2022-12-01T05:18:20.656Z,40.75
2022-12-01T05:20:27.102Z,48.40
2022-12-01T05:22:14.199Z,47.30
2022-12-01T05:24:01.565Z,41.03
2022-12-01T05:25:48.676Z,48.30
2022-12-01T05:27:35.841Z,86.97
2022-12-01T05:29:23.339Z,58.35
2022-12-01T05:31:10.534Z,96.20
2022-12-01T05:32:57.617Z,81.57
2022-12-01T05:34:44.906Z,68.43
2022-12-01T05:36:32.517Z,53.63
2022-12-01T05:38:20.292Z,85.18
2022-12-01T05:40:08.305Z,53.42
2022-12-01T05:41:55.250Z,60.55
2022-12-01T05:43:42.470Z,55.70
2022-12-01T05:45:30.006Z,91.68
2022-12-01T05:47:17.216Z,115.57
2022-12-01T05:49:04.333Z,66.03
2022-12-01T05:50:51.835Z,70.72
2022-12-01T05:52:39.040Z,87.13
2022-12-01T05:54:26.163Z,58.70
2022-12-01T05:56:13.564Z,62.35
2022-12-01T05:58:01.145Z,57.92
2022-12-01T05:59:48.435Z,48.38
2022-12-01T06:03:23.183Z,46.60
2022-12-01T06:05:10.594Z,47.47
2022-12-01T06:06:57.905Z,44.55
2022-12-01T06:08:45.141Z,48.00
2022-12-01T06:10:32.266Z,54.60
2022-12-01T06:12:20.736Z,51.75
2022-12-01T06:14:07.921Z,48.78
2022-12-01T06:15:59.479Z,46.30
2022-12-01T06:17:46.863Z,45.42
2022-12-01T06:19:33.943Z,53.70
2022-12-01T06:21:21.182Z,45.35
2022-12-01T06:23:08.548Z,47.13
2022-12-01T06:24:55.658Z,45.03
2022-12-01T06:26:42.807Z,45.17
2022-12-01T06:28:30.240Z,47.05
2022-12-01T06:30:17.470Z,48.75
2022-12-01T06:32:04.834Z,44.40
2022-12-01T06:33:52.515Z,52.25
2022-12-01T06:35:39.685Z,43.92
2022-12-01T06:37:27.877Z,49.80
2022-12-01T06:39:16.692Z,47.17
2022-12-01T06:41:05.560Z,46.90
2022-12-01T06:42:52.957Z,50.40
2022-12-01T06:44:40.575Z,48.13
2022-12-01T06:46:28.122Z,50.13
2022-12-01T06:48:17.883Z,50.47
2022-12-01T06:50:08.583Z,57.83
2022-12-01T06:52:00.757Z,47.17
2022-12-01T06:53:48.349Z,43.65
2022-12-01T06:55:37.223Z,46.08
2022-12-01T06:57:24.673Z,45.67
2022-12-01T06:59:12.322Z,51.40
2022-12-01T07:02:47.816Z,45.13
2022-12-01T07:04:35.026Z,43.00
2022-12-01T07:06:22.588Z,48.90
2022-12-01T07:08:09.712Z,44.50
2022-12-01T07:09:56.998Z,46.03
2022-12-01T07:11:44.413Z,40.38
2022-12-01T07:13:33.771Z,41.15
2022-12-01T07:15:21.232Z,41.17
2022-12-01T07:17:09.936Z,44.95
2022-12-01T07:18:58.959Z,41.78
2022-12-01T07:20:50.946Z,39.00
2022-12-01T07:22:39.690Z,41.75
2022-12-01T07:24:26.989Z,47.08
2022-12-01T07:26:17.276Z,48.13
2022-12-01T07:28:04.835Z,39.00
2022-12-01T07:29:52.031Z,41.70
2022-12-01T07:31:39.643Z,41.85
2022-12-01T07:33:27.072Z,43.80
2022-12-01T07:35:14.461Z,49.97
2022-12-01T07:37:01.823Z,50.03
2022-12-01T07:38:49.211Z,46.50
2022-12-01T07:40:36.382Z,42.67
2022-12-01T07:42:23.662Z,46.05
2022-12-01T07:44:11.604Z,45.13
2022-12-01T07:46:10.241Z,44.78
2022-12-01T07:47:57.539Z,42.15
2022-12-01T07:49:44.973Z,42.78
2022-12-01T07:51:35.155Z,39.58
2022-12-01T07:53:24.152Z,46.15
2022-12-01T07:55:11.542Z,42.95
2022-12-01T07:56:59.159Z,41.65
2022-12-01T07:58:46.497Z,37.42
2022-12-01T08:00:33.915Z,42.00
2022-12-01T08:02:21.117Z,44.65
2022-12-01T08:04:08.436Z,34.47
2022-12-01T08:05:57.359Z,43.15
2022-12-01T08:07:44.723Z,40.92
2022-12-01T08:09:31.869Z,39.47
2022-12-01T08:11:27.220Z,36.35
2022-12-01T08:13:17.314Z,35.97
2022-12-01T08:15:05.167Z,39.90
2022-12-01T08:16:52.530Z,49.90
2022-12-01T08:18:41.097Z,43.17
2022-12-01T08:20:28.452Z,45.15
2022-12-01T08:22:16.009Z,44.95
2022-12-01T08:24:03.668Z,40.70
2022-12-01T08:25:52.715Z,46.65
2022-12-01T08:27:40.088Z,42.15
2022-12-01T08:29:27.162Z,41.65
2022-12-01T08:31:16.557Z,40.67
2022-12-01T08:33:04.110Z,46.67
2022-12-01T08:34:53.591Z,48.60
2022-12-01T08:36:41.052Z,44.20
2022-12-01T08:38:28.481Z,49.42
2022-12-01T08:40:16.928Z,52.13
2022-12-01T08:42:04.223Z,59.15
2022-12-01T08:44:00.740Z,50.92
2022-12-01T08:45:48.925Z,45.00
2022-12-01T08:47:36.185Z,39.05
2022-12-01T08:49:23.566Z,37.65
2022-12-01T08:51:16.809Z,46.47
2022-12-01T08:53:03.916Z,39.28
2022-12-01T08:54:51.480Z,43.72
2022-12-01T08:56:41.201Z,38.17
2022-12-01T08:58:28.735Z,35.67
2022-12-01T09:00:16.793Z,34.40
2022-12-01T09:02:07.070Z,32.65
2022-12-01T09:04:06.131Z,31.67
2022-12-01T09:05:54.133Z,35.17
2022-12-01T09:07:43.021Z,33.33
2022-12-01T09:09:30.240Z,26.98
2022-12-01T09:11:19.359Z,27.67
2022-12-01T09:13:06.519Z,31.25
2022-12-01T09:14:53.822Z,27.10
2022-12-01T09:16:42.688Z,29.60
2022-12-01T09:18:30.182Z,26.30
2022-12-01T09:20:17.403Z,26.55
2022-12-01T09:22:04.803Z,33.05
2022-12-01T09:23:52.523Z,31.10
2022-12-01T09:25:39.703Z,28.38
2022-12-01T09:27:27.134Z,30.35
2022-12-01T09:29:15.930Z,18.67
2022-12-01T09:31:07.842Z,27.15
2022-12-01T09:32:55.358Z,25.30
2022-12-01T09:34:42.612Z,29.52
2022-12-01T09:36:31.921Z,30.90
2022-12-01T09:38:19.465Z,34.40
2022-12-01T09:40:07.340Z,26.15
2022-12-01T09:43:48.591Z,29.30
2022-12-01T09:45:40.347Z,32.33
2022-12-01T09:47:35.622Z,24.75
2022-12-01T09:49:28.444Z,30.13
2022-12-01T09:51:23.241Z,26.15
2022-12-01T09:53:16.429Z,24.02
2022-12-01T09:55:05.202Z,23.73
2022-12-01T09:56:55.545Z,22.27
2022-12-01T09:58:43.278Z,22.65
2022-12-01T10:00:38.159Z,22.00
2022-12-01T10:02:44.151Z,23.27
2022-12-01T10:04:41.399Z,27.15
2022-12-01T10:06:52.893Z,27.60
2022-12-01T10:08:47.642Z,26.05
2022-12-01T10:10:43.060Z,32.47
2022-12-01T10:12:33.426Z,38.83
2022-12-01T10:14:21.259Z,23.35
2022-12-01T10:16:15.453Z,28.65
2022-12-01T10:18:13.642Z,31.25
2022-12-01T10:20:13.382Z,24.90
2022-12-01T10:22:06.459Z,25.33
2022-12-01T10:24:33.954Z,27.40
2022-12-01T10:26:31.297Z,30.30
2022-12-01T10:28:40.738Z,26.65
2022-12-01T10:30:28.358Z,34.22
2022-12-01T10:32:34.213Z,30.17
2022-12-01T10:34:23.171Z,37.65
2022-12-01T10:36:11.017Z,29.05
2022-12-01T10:38:04.448Z,28.52
2022-12-01T10:39:55.399Z,31.08
2022-12-01T10:41:43.195Z,31.23
2022-12-01T10:43:39.203Z,30.85
2022-12-01T10:45:28.689Z,36.13
2022-12-01T10:47:22.122Z,42.28
2022-12-01T10:49:15.404Z,39.92
2022-12-01T10:51:29.264Z,43.55
2022-12-01T10:53:23.035Z,33.00
2022-12-01T10:55:46.473Z,29.25
2022-12-01T10:57:37.700Z,37.55
2022-12-01T10:59:26.967Z,36.60
2022-12-01T11:01:20.737Z,37.35
2022-12-01T11:03:22.816Z,38.38
2022-12-01T11:05:24.607Z,44.83
2022-12-01T11:07:23.281Z,39.75
2022-12-01T11:09:25.985Z,56.55
2022-12-01T11:11:38.934Z,47.22
2022-12-01T11:13:31.979Z,51.25
2022-12-01T11:15:26.937Z,58.53
2022-12-01T11:17:30.678Z,44.38
2022-12-01T11:19:32.770Z,40.53
2022-12-01T11:21:27.900Z,35.92
2022-12-01T11:23:25.577Z,33.22
2022-12-01T11:25:20.846Z,33.47
2022-12-01T11:27:18.206Z,31.48
2022-12-01T11:29:20.876Z,33.33
2022-12-01T11:31:10.320Z,33.47
2022-12-01T11:33:00.667Z,35.28
2022-12-01T11:34:58.543Z,43.97
2022-12-01T11:36:49.509Z,41.50
2022-12-01T11:38:37.056Z,47.45
2022-12-01T11:40:33.344Z,37.90
2022-12-01T11:42:26.042Z,41.13
2022-12-01T11:44:49.839Z,46.58
2022-12-01T11:46:46.326Z,33.67
2022-12-01T11:48:38.272Z,27.23
2022-12-01T11:52:31.847Z,41.53
2022-12-01T11:54:23.653Z,40.63
2022-12-01T11:56:17.764Z,41.97
2022-12-01T11:58:05.477Z,31.38
2022-12-01T11:59:53.015Z,35.60
2022-12-01T12:01:59.391Z,39.83
2022-12-01T12:03:59.746Z,40.37
2022-12-01T12:06:32.354Z,33.83
2022-12-01T12:08:32.979Z,34.28
2022-12-01T12:10:52.629Z,38.35
2022-12-01T12:12:42.865Z,41.28
2022-12-01T12:14:41.442Z,39.05
2022-12-01T12:16:44.298Z,45.97
2022-12-01T12:18:58.934Z,46.22
2022-12-01T12:20:55.650Z,46.70
2022-12-01T12:22:57.546Z,41.75
2022-12-01T12:24:56.600Z,48.78
2022-12-01T12:27:01.105Z,47.13
2022-12-01T12:29:01.181Z,52.15
2022-12-01T12:31:14.637Z,47.97
2022-12-01T12:33:08.216Z,52.88
2022-12-01T12:35:20.777Z,44.05
2022-12-01T12:37:25.314Z,36.45
2022-12-01T12:39:38.404Z,39.83
2022-12-01T12:41:44.311Z,46.17
2022-12-01T12:44:12.941Z,44.60
2022-12-01T12:46:11.553Z,44.85
2022-12-01T12:48:11.443Z,36.60
2022-12-01T12:50:16.421Z,46.63
2022-12-01T12:52:12.617Z,38.80
2022-12-01T12:54:29.200Z,43.53
2022-12-01T12:56:20.111Z,38.17
2022-12-01T12:58:23.620Z,44.42
2022-12-01T13:00:29.929Z,49.42
2022-12-01T13:02:27.126Z,53.30
2022-12-01T13:04:23.348Z,46.58
2022-12-01T13:06:18.477Z,45.97
2022-12-01T13:08:14.293Z,40.08
2022-12-01T13:10:23.332Z,41.70
2022-12-01T13:12:36.737Z,30.25
2022-12-01T13:15:01.654Z,46.72
2022-12-01T13:16:52.870Z,50.13
2022-12-01T13:18:45.676Z,57.40
2022-12-01T13:20:34.972Z,48.10
2022-12-01T13:22:32.165Z,47.67
2022-12-01T13:24:24.037Z,53.15
2022-12-01T13:26:11.766Z,55.38
2022-12-01T13:28:03.880Z,46.80
2022-12-01T13:29:53.149Z,49.30
2022-12-01T13:31:48.415Z,49.92
2022-12-01T13:33:38.026Z,44.20
2022-12-01T13:35:37.976Z,50.00
2022-12-01T13:37:33.761Z,42.63
2022-12-01T13:39:22.819Z,45.90
2022-12-01T13:41:33.567Z,47.65
2022-12-01T13:43:23.196Z,55.70
2022-12-01T13:45:20.240Z,55.85
2022-12-01T13:47:10.750Z,51.22
2022-12-01T13:49:19.126Z,56.10
2022-12-01T13:51:07.173Z,44.08
2022-12-01T13:53:11.259Z,27.05
2022-12-01T13:55:08.401Z,26.02
2022-12-01T13:58:53.827Z,53.65
2022-12-01T14:00:41.813Z,56.28
2022-12-01T14:02:36.621Z,45.00
2022-12-01T14:04:27.284Z,50.60
2022-12-01T14:06:46.607Z,52.25
2022-12-01T14:08:38.117Z,38.67
2022-12-01T14:10:32.417Z,54.72
2022-12-01T14:12:30.384Z,42.20
2022-12-01T14:14:25.998Z,40.35
2022-12-01T14:16:16.829Z,49.25
2022-12-01T14:18:50.540Z,51.15
2022-12-01T14:20:46.705Z,45.17
2022-12-01T14:22:38.831Z,37.75
2022-12-01T14:24:35.608Z,34.42
2022-12-01T14:26:23.770Z,36.10
2022-12-01T14:28:18.306Z,34.80
2022-12-01T14:30:39.939Z,40.22
2022-12-01T14:32:27.810Z,45.17
2022-12-01T14:34:18.779Z,29.90
2022-12-01T14:36:22.859Z,25.35
2022-12-01T14:38:10.868Z,26.02
2022-12-01T14:40:06.582Z,22.85
2022-12-01T14:41:58.494Z,25.17
2022-12-01T14:44:05.691Z,28.77
2022-12-01T14:46:12.661Z,24.73
2022-12-01T14:48:05.123Z,24.25
2022-12-01T14:49:55.583Z,32.17
2022-12-01T14:51:47.358Z,18.52
2022-12-01T14:53:39.114Z,32.90
2022-12-01T14:55:31.313Z,32.63
2022-12-01T14:57:24.717Z,36.67
2022-12-01T14:59:22.257Z,31.65
2022-12-01T15:03:17.760Z,27.92
2022-12-01T15:05:19.705Z,35.45
2022-12-01T15:07:07.498Z,30.55
2022-12-01T15:09:33.943Z,31.90
2022-12-01T15:11:25.648Z,30.08
2022-12-01T15:13:30.592Z,24.20
2022-12-01T15:15:24.330Z,24.35
2022-12-01T15:17:32.873Z,29.83
2022-12-01T15:19:38.256Z,32.65
2022-12-01T15:21:27.395Z,32.33
2022-12-01T15:23:17.150Z,34.72
2022-12-01T15:25:15.640Z,41.25
2022-12-01T15:27:04.209Z,43.13
2022-12-01T15:29:14.876Z,29.33
2022-12-01T15:31:11.689Z,59.35
2022-12-01T15:33:00.045Z,49.72
2022-12-01T15:34:51.349Z,30.58
2022-12-01T15:36:39.203Z,24.77
2022-12-01T15:38:34.939Z,18.27
2022-12-01T15:42:35.991Z,34.53
2022-12-01T15:44:33.367Z,25.70
2022-12-01T15:46:31.294Z,22.50
2022-12-01T15:48:27.305Z,23.27
2022-12-01T15:50:31.140Z,27.45
2022-12-01T15:52:18.843Z,28.67
2022-12-01T15:54:07.006Z,25.63
2022-12-01T15:55:59.061Z,44.83
2022-12-01T15:57:47.276Z,49.42
2022-12-01T15:59:44.719Z,44.30
2022-12-01T16:01:33.491Z,47.65
2022-12-01T16:03:20.809Z,65.75
2022-12-01T16:05:14.772Z,62.97
2022-12-01T16:07:07.989Z,68.03
2022-12-01T16:09:02.342Z,66.78
2022-12-01T16:11:10.430Z,42.92
2022-12-01T16:13:35.273Z,80.90
2022-12-01T16:15:22.867Z,39.13
2022-12-01T16:19:23.471Z,28.42
2022-12-01T16:21:10.678Z,27.80
2022-12-01T16:23:01.747Z,28.50
2022-12-01T16:24:55.220Z,29.95
2022-12-01T16:27:16.822Z,32.30
2022-12-01T16:29:19.513Z,26.35
2022-12-01T16:31:12.579Z,33.28
2022-12-01T16:33:16.008Z,41.35
2022-12-01T16:35:04.440Z,37.55
2022-12-01T16:36:51.671Z,40.08
2022-12-01T16:38:38.773Z,33.88
2022-12-01T16:40:28.049Z,27.00
2022-12-01T16:44:27.066Z,32.35
2022-12-01T16:46:13.587Z,33.47
2022-12-01T16:48:04.791Z,23.98
2022-12-01T16:49:54.935Z,34.60
2022-12-01T16:51:55.569Z,42.85
2022-12-01T16:53:49.578Z,30.23
2022-12-01T16:55:52.319Z,22.95
2022-12-01T16:57:41.371Z,23.40
2022-12-01T16:59:28.724Z,27.20
2022-12-01T17:01:16.004Z,27.27
2022-12-01T17:03:04.560Z,23.00
2022-12-01T17:04:51.930Z,24.42
2022-12-01T17:06:39.331Z,21.90
2022-12-01T17:08:27.618Z,29.30
2022-12-01T17:10:15.197Z,24.92
2022-12-01T17:12:02.494Z,33.90
2022-12-01T17:13:50.133Z,38.00
2022-12-01T17:15:45.331Z,29.95
2022-12-01T17:17:32.835Z,37.30
2022-12-01T17:19:20.519Z,29.33
2022-12-01T17:21:10.291Z,31.65
2022-12-01T17:22:57.431Z,30.73
2022-12-01T17:24:45.275Z,34.22
2022-12-01T17:26:32.767Z,34.22
2022-12-01T17:28:20.347Z,35.85
2022-12-01T17:30:08.798Z,34.65
2022-12-01T17:31:56.624Z,32.20
2022-12-01T17:33:43.855Z,35.08
2022-12-01T17:35:31.303Z,39.45
2022-12-01T17:37:21.111Z,35.00
2022-12-01T17:39:08.541Z,37.70
2022-12-01T17:41:23.923Z,43.50
2022-12-01T17:43:11.119Z,37.25
2022-12-01T17:44:58.462Z,45.60
2022-12-01T17:46:45.953Z,39.75
2022-12-01T17:48:41.297Z,34.55
2022-12-01T17:50:28.662Z,40.92
2022-12-01T17:52:18.710Z,42.00
2022-12-01T17:54:06.807Z,43.08
2022-12-01T17:55:53.869Z,38.78
2022-12-01T17:57:41.911Z,42.60
2022-12-01T17:59:28.977Z,41.35
2022-12-01T18:01:25.328Z,41.03
2022-12-01T18:03:15.943Z,40.67
2022-12-01T18:05:03.200Z,33.80
2022-12-01T18:06:54.116Z,32.13
2022-12-01T18:08:42.545Z,30.70
2022-12-01T18:10:29.621Z,29.48
2022-12-01T18:12:16.779Z,36.78
2022-12-01T18:14:04.162Z,36.25
2022-12-01T18:15:51.397Z,39.03
2022-12-01T18:17:39.163Z,30.58
2022-12-01T18:19:26.773Z,35.90
2022-12-01T18:21:15.937Z,34.10
2022-12-01T18:23:28.153Z,32.05
2022-12-01T18:25:15.654Z,32.63
2022-12-01T18:27:02.754Z,32.90
2022-12-01T18:28:58.058Z,31.45
2022-12-01T18:30:46.636Z,29.73
2022-12-01T18:32:33.871Z,29.92
2022-12-01T18:34:21.346Z,32.40
2022-12-01T18:38:00.358Z,35.03
2022-12-01T18:39:47.420Z,36.17
2022-12-01T18:41:36.044Z,33.42
2022-12-01T18:43:23.192Z,35.20
2022-12-01T18:45:10.708Z,36.35
2022-12-01T18:48:48.513Z,38.35
2022-12-01T18:50:35.797Z,43.65
2022-12-01T18:52:23.275Z,40.38
2022-12-01T18:54:13.533Z,44.35
2022-12-01T18:56:05.439Z,42.63
2022-12-01T18:57:53.059Z,41.67
2022-12-01T18:59:40.602Z,43.45
2022-12-01T19:03:24.090Z,39.92
2022-12-01T19:05:11.228Z,35.35
2022-12-01T19:06:58.758Z,43.10
2022-12-01T19:08:46.371Z,44.78
2022-12-01T19:10:33.596Z,45.22
2022-12-01T19:12:20.845Z,53.83
2022-12-01T19:14:12.501Z,52.55
2022-12-01T19:16:05.035Z,56.20
2022-12-01T19:17:52.251Z,58.80
2022-12-01T19:19:39.797Z,44.17
2022-12-01T19:21:27.274Z,50.80
2022-12-01T19:23:15.086Z,42.72
2022-12-01T19:25:03.399Z,42.08
2022-12-01T19:26:55.007Z,39.85
2022-12-01T19:28:48.424Z,39.88
2022-12-01T19:30:37.013Z,46.67
2022-12-01T19:32:24.322Z,43.67
2022-12-01T19:34:11.507Z,47.33
2022-12-01T19:36:11.680Z,43.97
2022-12-01T19:37:58.921Z,38.90
2022-12-01T19:39:46.103Z,40.47
2022-12-01T19:41:33.882Z,42.30
2022-12-01T19:43:21.108Z,43.35
2022-12-01T19:45:09.026Z,49.88
2022-12-01T19:46:57.846Z,55.47
2022-12-01T19:48:45.469Z,65.28
2022-12-01T19:50:36.833Z,82.82
2022-12-01T19:52:24.482Z,59.03
2022-12-01T19:54:17.010Z,55.55
2022-12-01T19:56:05.420Z,46.17
2022-12-01T19:57:53.020Z,40.97
2022-12-01T19:59:40.415Z,42.55
2022-12-01T20:01:28.918Z,36.65
2022-12-01T20:05:04.860Z,35.95
2022-12-01T20:06:52.108Z,36.63
2022-12-01T20:08:40.585Z,31.95
2022-12-01T20:10:28.487Z,29.83
2022-12-01T20:14:08.154Z,39.15
2022-12-01T20:16:20.236Z,37.35
2022-12-01T20:18:09.341Z,32.33
2022-12-01T20:19:57.701Z,33.25
2022-12-01T20:21:45.858Z,39.38
2022-12-01T20:23:34.877Z,41.08
2022-12-01T20:25:24.053Z,50.10
2022-12-01T20:27:12.037Z,50.83
2022-12-01T20:29:06.681Z,42.70
2022-12-01T20:30:58.057Z,32.50
2022-12-01T20:32:46.436Z,40.30
2022-12-01T20:34:36.230Z,43.90
2022-12-01T20:36:25.573Z,31.92
2022-12-01T20:38:14.712Z,32.35
2022-12-01T20:40:02.702Z,29.58
2022-12-01T20:41:50.538Z,36.90
2022-12-01T20:43:38.657Z,30.70
2022-12-01T20:45:27.088Z,33.17
2022-12-01T20:47:18.966Z,36.90
2022-12-01T20:49:07.679Z,29.63
2022-12-01T20:50:56.004Z,31.63
2022-12-01T20:52:44.347Z,32.67
2022-12-01T20:54:32.221Z,34.03
2022-12-01T20:56:20.208Z,28.33
2022-12-01T20:58:09.236Z,32.17
2022-12-01T20:59:56.496Z,32.95
2022-12-01T21:01:43.710Z,36.00
2022-12-01T21:03:31.218Z,30.10
2022-12-01T21:05:18.277Z,36.00
2022-12-01T21:07:05.540Z,29.30
2022-12-01T21:08:53.166Z,27.80
2022-12-01T21:10:45.177Z,34.58
2022-12-01T21:12:51.636Z,37.30
2022-12-01T21:14:49.447Z,32.80
2022-12-01T21:16:39.132Z,37.80
2022-12-01T21:18:38.198Z,28.20
2022-12-01T21:20:28.316Z,31.48
2022-12-01T21:22:15.847Z,34.10
2022-12-01T21:24:17.149Z,33.38
2022-12-01T21:26:15.258Z,33.50
2022-12-01T21:28:26.159Z,49.25
2022-12-01T21:30:26.565Z,37.53
2022-12-01T21:32:32.080Z,38.00
2022-12-01T21:34:25.221Z,35.80
2022-12-01T21:36:18.460Z,42.17
2022-12-01T21:38:18.970Z,38.20
2022-12-01T21:40:24.683Z,36.92
2022-12-01T21:42:19.226Z,33.08
2022-12-01T21:44:16.602Z,29.00
2022-12-01T21:46:14.294Z,53.22
2022-12-01T21:48:14.892Z,31.42
2022-12-01T21:50:09.081Z,35.33
2022-12-01T21:51:56.497Z,96.13
2022-12-01T21:53:43.752Z,33.45
2022-12-01T21:57:49.746Z,34.50
2022-12-01T21:59:36.951Z,34.80
2022-12-01T22:01:32.680Z,29.63
2022-12-01T22:03:48.894Z,28.92
2022-12-01T22:06:07.109Z,28.73
2022-12-01T22:08:07.921Z,31.77
2022-12-01T22:09:55.004Z,29.13
2022-12-01T22:11:44.872Z,27.65
2022-12-01T22:13:40.833Z,26.15
2022-12-01T22:15:40.780Z,30.60
2022-12-01T22:17:28.198Z,27.48
2022-12-01T22:21:22.685Z,29.98
2022-12-01T22:23:13.049Z,23.17
2022-12-01T22:25:15.320Z,23.35
2022-12-01T22:27:32.604Z,23.00
2022-12-01T22:31:22.718Z,20.83
2022-12-01T22:33:24.604Z,21.83
2022-12-01T22:35:31.161Z,25.00
2022-12-01T22:37:33.265Z,19.77
2022-12-01T22:39:29.989Z,24.65
2022-12-01T22:41:20.365Z,22.00
2022-12-01T22:43:27.008Z,25.55
2022-12-01T22:45:27.035Z,26.27
2022-12-01T22:47:15.021Z,31.23
2022-12-01T22:49:20.907Z,27.40
2022-12-01T22:51:14.087Z,25.88
2022-12-01T22:53:14.937Z,29.67
2022-12-01T22:55:02.467Z,22.20
2022-12-01T22:57:00.261Z,25.00
2022-12-01T22:58:48.183Z,22.25
2022-12-01T23:00:35.825Z,21.17
2022-12-01T23:02:35.169Z,23.70
2022-12-01T23:04:26.493Z,26.23
2022-12-01T23:06:48.220Z,24.65
2022-12-01T23:08:35.285Z,22.45
2022-12-01T23:10:30.930Z,21.50
2022-12-01T23:12:31.788Z,19.50
2022-12-01T23:14:23.313Z,23.75
2022-12-01T23:16:11.344Z,22.40
2022-12-01T23:18:23.846Z,29.88
2022-12-01T23:20:10.829Z,31.42
2022-12-01T23:21:57.898Z,35.27
2022-12-01T23:23:45.193Z,27.45
2022-12-01T23:25:33.988Z,41.58
2022-12-01T23:27:21.078Z,31.35
2022-12-01T23:29:08.435Z,24.92
2022-12-01T23:30:58.214Z,37.70
2022-12-01T23:32:51.837Z,35.63
2022-12-01T23:34:39.367Z,31.58
2022-12-01T23:36:28.599Z,32.88
2022-12-01T23:38:22.281Z,38.08
2022-12-01T23:40:30.062Z,36.42
2022-12-01T23:44:23.868Z,32.03
2022-12-01T23:46:15.929Z,29.15
2022-12-01T23:48:09.585Z,31.63
2022-12-01T23:50:02.445Z,29.55
2022-12-01T23:51:55.042Z,32.55
2022-12-01T23:53:42.147Z,31.30
2022-12-01T23:55:30.930Z,31.88
2022-12-01T23:57:23.568Z,29.70
2022-12-01T23:59:13.043Z,29.17
